Ana Sayfa
METAR-TAF:

METAR-TAF

Havaalanları :

Lytton, İngiliz Kolombiyası, Kanada

Enlem: 50-14N, Boylam: 121-35W, yükseklik: 229 m

Güncel hava durumu gözlemi

Rapor saat 04:00 UTC de 1 saat ve 10 dakika önce yapıldı.
Rüzgar güney/güneybatıdan 13 kt ve 24 kt'a kadar ani rüzgarlar
Sıcaklık 6°C
Nem 87%
Basınç 1003 hPa
Görüş mesafesi: 14.5 km
5000 ft yükseklikte parçalı çok bulutlu
6500 ft yükseklikte çok bulutlu
hafif yağmur

METAR: CWLY 290400Z AUTO 21013G24KT 9SM -RA BKN050 OVC065 06/04 A2961 RMK PRESFR SLP034

Saat: 21:10 (05:10 UTC)


TAF: eksik

4.000'den fazla havaalanı için hava durumu gözlemleri ve tahminleri (METAR ve TAF raporları).

Kullanılabilir istasyonlar harita üzerinde sarı ve kırmızı noktalarla gösterilir.

İstasyonun adını görmek için fareyi noktanın üzerinde gezdirin.

Sonrasında hava gözlem ve tahminlerini görmek için tıklayın.

Haritayı değiştirmek için: yaklaştırmak için siyah artı işaretli yeşil düğmeye ve uzaklaştırmak için de eksi işaretli düğmeye hızla tıklayın; bitişik haritalar için yeşil okları kullanın.


METAR-TAF: